sensor_id;sensor_type;location;lat;lon;timestamp;P1;durP1;ratioP1;P2;durP2;ratioP2
41446;SDS011;27185;52.040;4.490;2022-09-09T00:00:22;8.52;;;4.60;;
41446;SDS011;27185;52.040;4.490;2022-09-09T00:03:12;8.15;;;4.20;;
41446;SDS011;27185;52.040;4.490;2022-09-09T00:06:21;9.13;;;4.97;;
41446;SDS011;27185;52.040;4.490;2022-09-09T00:12:05;6.78;;;3.70;;
41446;SDS011;27185;52.040;4.490;2022-09-09T00:14:58;7.38;;;3.72;;
41446;SDS011;27185;52.040;4.490;2022-09-09T00:18:10;7.45;;;3.97;;
41446;SDS011;27185;52.040;4.490;2022-09-09T00:21:17;8.38;;;4.22;;
41446;SDS011;27185;52.040;4.490;2022-09-09T00:27:29;7.60;;;3.53;;
41446;SDS011;27185;52.040;4.490;2022-09-09T00:30:26;7.28;;;4.43;;
41446;SDS011;27185;52.040;4.490;2022-09-09T00:33:17;6.88;;;4.47;;
41446;SDS011;27185;52.040;4.490;2022-09-09T00:36:18;9.10;;;5.25;;
41446;SDS011;27185;52.040;4.490;2022-09-09T00:42:19;8.57;;;4.15;;
41446;SDS011;27185;52.040;4.490;2022-09-09T00:48:06;10.70;;;6.22;;
41446;SDS011;27185;52.040;4.490;2022-09-09T00:50:56;9.60;;;6.53;;
41446;SDS011;27185;52.040;4.490;2022-09-09T00:57:04;9.02;;;5.47;;
41446;SDS011;27185;52.040;4.490;2022-09-09T01:00:24;6.97;;;4.55;;
41446;SDS011;27185;52.040;4.490;2022-09-09T01:12:09;8.63;;;5.97;;
41446;SDS011;27185;52.040;4.490;2022-09-09T01:18:04;8.35;;;4.97;;
41446;SDS011;27185;52.040;4.490;2022-09-09T01:27:01;7.20;;;4.43;;
41446;SDS011;27185;52.040;4.490;2022-09-09T01:29:49;7.88;;;5.28;;
41446;SDS011;27185;52.040;4.490;2022-09-09T01:32:39;8.70;;;4.65;;
41446;SDS011;27185;52.040;4.490;2022-09-09T01:38:40;8.88;;;4.45;;
41446;SDS011;27185;52.040;4.490;2022-09-09T01:41:26;8.95;;;5.05;;
41446;SDS011;27185;52.040;4.490;2022-09-09T01:44:12;9.90;;;4.82;;
41446;SDS011;27185;52.040;4.490;2022-09-09T01:46:58;7.93;;;5.00;;
41446;SDS011;27185;52.040;4.490;2022-09-09T01:49:43;7.57;;;4.65;;
41446;SDS011;27185;52.040;4.490;2022-09-09T01:52:30;7.07;;;4.85;;
41446;SDS011;27185;52.040;4.490;2022-09-09T01:55:28;6.90;;;4.30;;
41446;SDS011;27185;52.040;4.490;2022-09-09T02:01:34;7.15;;;3.80;;
41446;SDS011;27185;52.040;4.490;2022-09-09T02:04:45;5.18;;;3.58;;
41446;SDS011;27185;52.040;4.490;2022-09-09T02:07:41;6.18;;;3.70;;
41446;SDS011;27185;52.040;4.490;2022-09-09T02:10:35;7.93;;;4.13;;
41446;SDS011;27185;52.040;4.490;2022-09-09T02:16:24;4.40;;;2.95;;
41446;SDS011;27185;52.040;4.490;2022-09-09T02:21:59;6.80;;;3.25;;
41446;SDS011;27185;52.040;4.490;2022-09-09T02:24:46;4.63;;;2.00;;
41446;SDS011;27185;52.040;4.490;2022-09-09T02:27:32;5.60;;;2.78;;
41446;SDS011;27185;52.040;4.490;2022-09-09T02:30:18;5.15;;;3.00;;
41446;SDS011;27185;52.040;4.490;2022-09-09T02:33:05;6.53;;;2.83;;
41446;SDS011;27185;52.040;4.490;2022-09-09T02:35:55;7.43;;;3.03;;
41446;SDS011;27185;52.040;4.490;2022-09-09T02:38:46;4.35;;;2.58;;
41446;SDS011;27185;52.040;4.490;2022-09-09T02:41:39;6.25;;;2.53;;
41446;SDS011;27185;52.040;4.490;2022-09-09T02:44:25;5.57;;;2.47;;
41446;SDS011;27185;52.040;4.490;2022-09-09T02:50:08;5.03;;;1.98;;
41446;SDS011;27185;52.040;4.490;2022-09-09T02:56:05;4.78;;;1.45;;
41446;SDS011;27185;52.040;4.490;2022-09-09T02:59:03;4.80;;;1.63;;
41446;SDS011;27185;52.040;4.490;2022-09-09T03:01:49;10.68;;;1.63;;
41446;SDS011;27185;52.040;4.490;2022-09-09T03:04:35;5.57;;;1.48;;
41446;SDS011;27185;52.040;4.490;2022-09-09T03:07:21;5.07;;;1.35;;
41446;SDS011;27185;52.040;4.490;2022-09-09T03:10:06;6.68;;;1.38;;
41446;SDS011;27185;52.040;4.490;2022-09-09T03:12:53;5.65;;;2.05;;
41446;SDS011;27185;52.040;4.490;2022-09-09T03:15:38;5.28;;;1.73;;
41446;SDS011;27185;52.040;4.490;2022-09-09T03:18:24;5.95;;;2.15;;
41446;SDS011;27185;52.040;4.490;2022-09-09T03:21:10;7.95;;;2.58;;
41446;SDS011;27185;52.040;4.490;2022-09-09T03:23:56;6.63;;;2.67;;
41446;SDS011;27185;52.040;4.490;2022-09-09T03:26:42;7.55;;;3.63;;
41446;SDS011;27185;52.040;4.490;2022-09-09T03:29:31;7.55;;;3.15;;
41446;SDS011;27185;52.040;4.490;2022-09-09T03:32:18;5.57;;;2.70;;
41446;SDS011;27185;52.040;4.490;2022-09-09T03:35:04;5.40;;;2.10;;
41446;SDS011;27185;52.040;4.490;2022-09-09T03:37:50;8.65;;;2.35;;
41446;SDS011;27185;52.040;4.490;2022-09-09T03:40:35;6.15;;;1.70;;
41446;SDS011;27185;52.040;4.490;2022-09-09T03:43:21;7.38;;;2.17;;
41446;SDS011;27185;52.040;4.490;2022-09-09T03:46:07;6.65;;;1.98;;
41446;SDS011;27185;52.040;4.490;2022-09-09T03:48:52;6.22;;;1.50;;
41446;SDS011;27185;52.040;4.490;2022-09-09T03:51:38;9.77;;;1.83;;
41446;SDS011;27185;52.040;4.490;2022-09-09T03:54:24;5.68;;;1.65;;
41446;SDS011;27185;52.040;4.490;2022-09-09T03:57:10;3.30;;;1.30;;
41446;SDS011;27185;52.040;4.490;2022-09-09T03:59:56;6.78;;;1.55;;
41446;SDS011;27185;52.040;4.490;2022-09-09T04:02:42;6.30;;;1.73;;
41446;SDS011;27185;52.040;4.490;2022-09-09T04:05:28;5.88;;;1.20;;
41446;SDS011;27185;52.040;4.490;2022-09-09T04:08:14;8.23;;;1.60;;
41446;SDS011;27185;52.040;4.490;2022-09-09T04:10:59;5.10;;;1.55;;
41446;SDS011;27185;52.040;4.490;2022-09-09T04:13:46;6.40;;;1.30;;
41446;SDS011;27185;52.040;4.490;2022-09-09T04:16:33;5.95;;;1.17;;
41446;SDS011;27185;52.040;4.490;2022-09-09T04:19:19;6.25;;;1.50;;
41446;SDS011;27185;52.040;4.490;2022-09-09T04:22:04;7.93;;;1.40;;
41446;SDS011;27185;52.040;4.490;2022-09-09T04:24:50;3.50;;;1.00;;
41446;SDS011;27185;52.040;4.490;2022-09-09T04:27:35;5.97;;;0.88;;
41446;SDS011;27185;52.040;4.490;2022-09-09T04:30:21;6.15;;;1.02;;
41446;SDS011;27185;52.040;4.490;2022-09-09T04:33:07;3.92;;;0.98;;
41446;SDS011;27185;52.040;4.490;2022-09-09T04:35:53;5.07;;;1.40;;
41446;SDS011;27185;52.040;4.490;2022-09-09T04:38:38;5.28;;;1.30;;
41446;SDS011;27185;52.040;4.490;2022-09-09T04:41:24;3.72;;;1.10;;
41446;SDS011;27185;52.040;4.490;2022-09-09T04:44:09;4.75;;;1.30;;
41446;SDS011;27185;52.040;4.490;2022-09-09T04:46:55;4.63;;;1.23;;
41446;SDS011;27185;52.040;4.490;2022-09-09T04:49:41;8.05;;;1.33;;
41446;SDS011;27185;52.040;4.490;2022-09-09T04:52:26;5.45;;;1.40;;
41446;SDS011;27185;52.040;4.490;2022-09-09T04:55:12;5.03;;;0.90;;
41446;SDS011;27185;52.040;4.490;2022-09-09T04:58:02;7.10;;;1.30;;
41446;SDS011;27185;52.040;4.490;2022-09-09T05:00:52;3.35;;;1.13;;
41446;SDS011;27185;52.040;4.490;2022-09-09T05:03:37;7.10;;;1.20;;
41446;SDS011;27185;52.040;4.490;2022-09-09T05:06:23;4.72;;;1.02;;
41446;SDS011;27185;52.040;4.490;2022-09-09T05:09:09;4.80;;;1.70;;
41446;SDS011;27185;52.040;4.490;2022-09-09T05:11:55;7.88;;;1.80;;
41446;SDS011;27185;52.040;4.490;2022-09-09T05:14:40;6.07;;;1.83;;
41446;SDS011;27185;52.040;4.490;2022-09-09T05:17:26;3.35;;;1.63;;
41446;SDS011;27185;52.040;4.490;2022-09-09T05:20:12;5.38;;;1.73;;
41446;SDS011;27185;52.040;4.490;2022-09-09T05:22:58;4.25;;;1.70;;
41446;SDS011;27185;52.040;4.490;2022-09-09T05:25:43;8.63;;;2.20;;
41446;SDS011;27185;52.040;4.490;2022-09-09T05:28:39;6.75;;;1.63;;
41446;SDS011;27185;52.040;4.490;2022-09-09T05:31:24;7.25;;;1.65;;
41446;SDS011;27185;52.040;4.490;2022-09-09T05:34:13;5.85;;;1.90;;
41446;SDS011;27185;52.040;4.490;2022-09-09T05:36:58;4.78;;;1.60;;
41446;SDS011;27185;52.040;4.490;2022-09-09T05:39:44;6.80;;;1.90;;
41446;SDS011;27185;52.040;4.490;2022-09-09T05:42:30;6.03;;;2.20;;
41446;SDS011;27185;52.040;4.490;2022-09-09T05:45:17;9.80;;;2.13;;
41446;SDS011;27185;52.040;4.490;2022-09-09T05:48:02;7.75;;;1.73;;
41446;SDS011;27185;52.040;4.490;2022-09-09T05:50:52;6.70;;;2.15;;
41446;SDS011;27185;52.040;4.490;2022-09-09T05:53:39;5.80;;;1.90;;
41446;SDS011;27185;52.040;4.490;2022-09-09T05:56:25;9.30;;;1.95;;
41446;SDS011;27185;52.040;4.490;2022-09-09T05:59:13;6.93;;;1.95;;
41446;SDS011;27185;52.040;4.490;2022-09-09T06:01:59;8.60;;;1.67;;
41446;SDS011;27185;52.040;4.490;2022-09-09T06:04:45;8.73;;;1.77;;
41446;SDS011;27185;52.040;4.490;2022-09-09T06:07:30;8.82;;;1.98;;
41446;SDS011;27185;52.040;4.490;2022-09-09T06:10:16;7.78;;;2.00;;
41446;SDS011;27185;52.040;4.490;2022-09-09T06:13:01;9.05;;;1.67;;
41446;SDS011;27185;52.040;4.490;2022-09-09T06:15:50;4.22;;;1.55;;
41446;SDS011;27185;52.040;4.490;2022-09-09T06:18:40;9.10;;;1.90;;
41446;SDS011;27185;52.040;4.490;2022-09-09T06:21:27;9.63;;;1.88;;
41446;SDS011;27185;52.040;4.490;2022-09-09T06:24:17;7.22;;;2.00;;
41446;SDS011;27185;52.040;4.490;2022-09-09T06:27:04;10.82;;;1.85;;
41446;SDS011;27185;52.040;4.490;2022-09-09T06:29:50;10.45;;;2.28;;
41446;SDS011;27185;52.040;4.490;2022-09-09T06:32:35;9.65;;;1.92;;
41446;SDS011;27185;52.040;4.490;2022-09-09T06:35:22;12.40;;;2.80;;
41446;SDS011;27185;52.040;4.490;2022-09-09T06:38:08;10.02;;;2.13;;
41446;SDS011;27185;52.040;4.490;2022-09-09T06:40:54;12.05;;;1.60;;
41446;SDS011;27185;52.040;4.490;2022-09-09T06:43:41;12.27;;;2.22;;
41446;SDS011;27185;52.040;4.490;2022-09-09T06:46:28;6.95;;;1.92;;
41446;SDS011;27185;52.040;4.490;2022-09-09T06:49:16;10.10;;;2.67;;
41446;SDS011;27185;52.040;4.490;2022-09-09T06:52:01;11.80;;;2.47;;
41446;SDS011;27185;52.040;4.490;2022-09-09T06:54:47;9.65;;;3.15;;
41446;SDS011;27185;52.040;4.490;2022-09-09T06:57:33;10.45;;;2.72;;
41446;SDS011;27185;52.040;4.490;2022-09-09T07:00:19;12.13;;;3.00;;
41446;SDS011;27185;52.040;4.490;2022-09-09T07:03:04;12.18;;;3.08;;
41446;SDS011;27185;52.040;4.490;2022-09-09T07:05:54;12.35;;;2.80;;
41446;SDS011;27185;52.040;4.490;2022-09-09T07:08:47;9.30;;;2.28;;
41446;SDS011;27185;52.040;4.490;2022-09-09T07:11:39;8.50;;;2.70;;
41446;SDS011;27185;52.040;4.490;2022-09-09T07:14:26;8.98;;;2.40;;
41446;SDS011;27185;52.040;4.490;2022-09-09T07:17:12;6.47;;;2.33;;
41446;SDS011;27185;52.040;4.490;2022-09-09T07:19:58;8.18;;;2.75;;
41446;SDS011;27185;52.040;4.490;2022-09-09T07:22:43;10.95;;;2.85;;
41446;SDS011;27185;52.040;4.490;2022-09-09T07:25:29;7.95;;;2.33;;
41446;SDS011;27185;52.040;4.490;2022-09-09T07:28:15;9.73;;;2.55;;
41446;SDS011;27185;52.040;4.490;2022-09-09T07:31:02;11.77;;;2.95;;
41446;SDS011;27185;52.040;4.490;2022-09-09T07:33:48;10.30;;;2.40;;
41446;SDS011;27185;52.040;4.490;2022-09-09T07:36:35;12.30;;;2.53;;
41446;SDS011;27185;52.040;4.490;2022-09-09T07:39:23;7.63;;;2.60;;
41446;SDS011;27185;52.040;4.490;2022-09-09T07:42:09;7.60;;;2.28;;
41446;SDS011;27185;52.040;4.490;2022-09-09T07:44:56;10.50;;;2.55;;
41446;SDS011;27185;52.040;4.490;2022-09-09T07:47:42;8.23;;;2.17;;
41446;SDS011;27185;52.040;4.490;2022-09-09T07:50:27;10.13;;;2.70;;
41446;SDS011;27185;52.040;4.490;2022-09-09T07:53:14;7.68;;;2.65;;
41446;SDS011;27185;52.040;4.490;2022-09-09T07:56:03;7.13;;;2.33;;
41446;SDS011;27185;52.040;4.490;2022-09-09T07:58:54;10.60;;;3.20;;
41446;SDS011;27185;52.040;4.490;2022-09-09T08:01:42;12.48;;;2.65;;
41446;SDS011;27185;52.040;4.490;2022-09-09T08:04:30;6.63;;;1.85;;
41446;SDS011;27185;52.040;4.490;2022-09-09T08:07:15;13.43;;;3.08;;
41446;SDS011;27185;52.040;4.490;2022-09-09T08:10:02;6.20;;;1.98;;
41446;SDS011;27185;52.040;4.490;2022-09-09T08:12:48;5.53;;;1.67;;
41446;SDS011;27185;52.040;4.490;2022-09-09T08:15:34;9.15;;;1.85;;
41446;SDS011;27185;52.040;4.490;2022-09-09T08:18:23;9.45;;;2.05;;
41446;SDS011;27185;52.040;4.490;2022-09-09T08:21:13;5.85;;;2.03;;
41446;SDS011;27185;52.040;4.490;2022-09-09T08:24:02;6.00;;;1.67;;
41446;SDS011;27185;52.040;4.490;2022-09-09T08:26:49;7.60;;;2.20;;
41446;SDS011;27185;52.040;4.490;2022-09-09T08:29:35;7.82;;;1.95;;
41446;SDS011;27185;52.040;4.490;2022-09-09T08:32:22;16.55;;;2.45;;
41446;SDS011;27185;52.040;4.490;2022-09-09T08:35:08;9.40;;;1.88;;
41446;SDS011;27185;52.040;4.490;2022-09-09T08:37:54;7.88;;;2.05;;
41446;SDS011;27185;52.040;4.490;2022-09-09T08:40:40;9.55;;;2.13;;
41446;SDS011;27185;52.040;4.490;2022-09-09T08:43:30;8.40;;;1.65;;
41446;SDS011;27185;52.040;4.490;2022-09-09T08:46:20;6.13;;;1.63;;
41446;SDS011;27185;52.040;4.490;2022-09-09T08:52:18;10.35;;;2.28;;
41446;SDS011;27185;52.040;4.490;2022-09-09T08:55:33;7.68;;;2.08;;
41446;SDS011;27185;52.040;4.490;2022-09-09T09:01:16;7.05;;;2.25;;
41446;SDS011;27185;52.040;4.490;2022-09-09T09:07:42;6.95;;;1.73;;
41446;SDS011;27185;52.040;4.490;2022-09-09T09:19:44;9.10;;;1.73;;
41446;SDS011;27185;52.040;4.490;2022-09-09T09:22:33;5.60;;;1.58;;
41446;SDS011;27185;52.040;4.490;2022-09-09T09:25:34;9.23;;;1.95;;
41446;SDS011;27185;52.040;4.490;2022-09-09T09:28:26;8.57;;;2.28;;
41446;SDS011;27185;52.040;4.490;2022-09-09T09:31:14;5.88;;;1.70;;
41446;SDS011;27185;52.040;4.490;2022-09-09T09:34:00;8.02;;;2.03;;
41446;SDS011;27185;52.040;4.490;2022-09-09T09:36:58;7.13;;;1.83;;
41446;SDS011;27185;52.040;4.490;2022-09-09T09:39:49;7.90;;;1.85;;
41446;SDS011;27185;52.040;4.490;2022-09-09T09:42:35;7.05;;;1.77;;
41446;SDS011;27185;52.040;4.490;2022-09-09T09:45:25;6.93;;;1.80;;
41446;SDS011;27185;52.040;4.490;2022-09-09T09:48:14;5.35;;;2.08;;
41446;SDS011;27185;52.040;4.490;2022-09-09T09:51:00;7.88;;;1.58;;
41446;SDS011;27185;52.040;4.490;2022-09-09T09:53:53;6.78;;;1.80;;
41446;SDS011;27185;52.040;4.490;2022-09-09T09:56:39;6.45;;;1.80;;
41446;SDS011;27185;52.040;4.490;2022-09-09T10:02:24;4.57;;;1.40;;
41446;SDS011;27185;52.040;4.490;2022-09-09T10:05:15;6.00;;;1.50;;
41446;SDS011;27185;52.040;4.490;2022-09-09T10:08:13;6.50;;;1.75;;
41446;SDS011;27185;52.040;4.490;2022-09-09T10:14:24;6.57;;;1.92;;
41446;SDS011;27185;52.040;4.490;2022-09-09T10:17:26;7.32;;;1.88;;
41446;SDS011;27185;52.040;4.490;2022-09-09T10:20:48;10.52;;;2.10;;
41446;SDS011;27185;52.040;4.490;2022-09-09T10:33:28;6.60;;;1.88;;
41446;SDS011;27185;52.040;4.490;2022-09-09T10:36:21;4.00;;;1.67;;
41446;SDS011;27185;52.040;4.490;2022-09-09T10:39:24;7.35;;;2.05;;
41446;SDS011;27185;52.040;4.490;2022-09-09T10:42:13;8.80;;;1.92;;
41446;SDS011;27185;52.040;4.490;2022-09-09T10:51:23;7.38;;;1.77;;
41446;SDS011;27185;52.040;4.490;2022-09-09T10:54:28;8.48;;;1.77;;
41446;SDS011;27185;52.040;4.490;2022-09-09T11:00:18;9.95;;;1.25;;
41446;SDS011;27185;52.040;4.490;2022-09-09T11:03:09;4.22;;;0.98;;
41446;SDS011;27185;52.040;4.490;2022-09-09T11:06:12;3.28;;;1.00;;
41446;SDS011;27185;52.040;4.490;2022-09-09T11:09:04;4.70;;;1.00;;
41446;SDS011;27185;52.040;4.490;2022-09-09T11:11:55;2.67;;;0.70;;
41446;SDS011;27185;52.040;4.490;2022-09-09T11:14:43;3.80;;;0.90;;
41446;SDS011;27185;52.040;4.490;2022-09-09T11:17:46;4.05;;;0.90;;
41446;SDS011;27185;52.040;4.490;2022-09-09T11:20:34;4.72;;;1.08;;
41446;SDS011;27185;52.040;4.490;2022-09-09T11:23:35;4.28;;;0.85;;
41446;SDS011;27185;52.040;4.490;2022-09-09T11:26:31;4.70;;;0.93;;
41446;SDS011;27185;52.040;4.490;2022-09-09T11:32:24;6.63;;;1.20;;
41446;SDS011;27185;52.040;4.490;2022-09-09T11:38:49;5.68;;;1.33;;
41446;SDS011;27185;52.040;4.490;2022-09-09T11:41:36;3.97;;;1.00;;
41446;SDS011;27185;52.040;4.490;2022-09-09T11:44:27;9.15;;;1.50;;
41446;SDS011;27185;52.040;4.490;2022-09-09T11:47:25;4.88;;;1.23;;
41446;SDS011;27185;52.040;4.490;2022-09-09T11:53:16;5.53;;;1.42;;
41446;SDS011;27185;52.040;4.490;2022-09-09T11:56:11;6.75;;;1.20;;
41446;SDS011;27185;52.040;4.490;2022-09-09T11:59:05;9.20;;;2.03;;
41446;SDS011;27185;52.040;4.490;2022-09-09T12:02:03;4.57;;;1.30;;
41446;SDS011;27185;52.040;4.490;2022-09-09T12:07:57;9.20;;;1.92;;
41446;SDS011;27185;52.040;4.490;2022-09-09T12:10:52;8.13;;;2.42;;
41446;SDS011;27185;52.040;4.490;2022-09-09T12:13:39;6.15;;;1.77;;
41446;SDS011;27185;52.040;4.490;2022-09-09T12:16:31;5.03;;;1.50;;
41446;SDS011;27185;52.040;4.490;2022-09-09T12:19:21;10.35;;;2.33;;
41446;SDS011;27185;52.040;4.490;2022-09-09T12:22:32;5.45;;;1.95;;
41446;SDS011;27185;52.040;4.490;2022-09-09T12:31:24;6.60;;;1.70;;
41446;SDS011;27185;52.040;4.490;2022-09-09T12:37:33;6.20;;;1.10;;
41446;SDS011;27185;52.040;4.490;2022-09-09T12:40:28;4.25;;;1.42;;
41446;SDS011;27185;52.040;4.490;2022-09-09T12:43:20;6.18;;;1.30;;
41446;SDS011;27185;52.040;4.490;2022-09-09T12:46:08;5.38;;;1.52;;
41446;SDS011;27185;52.040;4.490;2022-09-09T12:48:59;4.03;;;1.80;;
41446;SDS011;27185;52.040;4.490;2022-09-09T12:51:44;7.97;;;1.60;;
41446;SDS011;27185;52.040;4.490;2022-09-09T12:54:30;4.85;;;1.45;;
41446;SDS011;27185;52.040;4.490;2022-09-09T12:57:16;6.45;;;2.35;;
41446;SDS011;27185;52.040;4.490;2022-09-09T13:00:06;7.05;;;2.13;;
41446;SDS011;27185;52.040;4.490;2022-09-09T13:02:57;5.32;;;1.80;;
41446;SDS011;27185;52.040;4.490;2022-09-09T13:05:44;6.35;;;1.60;;
41446;SDS011;27185;52.040;4.490;2022-09-09T13:08:31;5.38;;;1.70;;
41446;SDS011;27185;52.040;4.490;2022-09-09T13:11:19;3.85;;;1.35;;
41446;SDS011;27185;52.040;4.490;2022-09-09T13:14:28;4.70;;;1.25;;
41446;SDS011;27185;52.040;4.490;2022-09-09T13:17:19;4.88;;;1.10;;
41446;SDS011;27185;52.040;4.490;2022-09-09T13:20:15;3.83;;;0.82;;
41446;SDS011;27185;52.040;4.490;2022-09-09T13:23:02;4.07;;;0.73;;
41446;SDS011;27185;52.040;4.490;2022-09-09T13:25:55;2.85;;;0.90;;
41446;SDS011;27185;52.040;4.490;2022-09-09T13:28:45;4.82;;;0.90;;
41446;SDS011;27185;52.040;4.490;2022-09-09T13:31:33;3.75;;;1.00;;
41446;SDS011;27185;52.040;4.490;2022-09-09T13:37:22;5.47;;;1.00;;
41446;SDS011;27185;52.040;4.490;2022-09-09T13:40:19;3.65;;;0.80;;
41446;SDS011;27185;52.040;4.490;2022-09-09T13:43:10;4.80;;;1.00;;
41446;SDS011;27185;52.040;4.490;2022-09-09T13:46:21;3.97;;;1.00;;
41446;SDS011;27185;52.040;4.490;2022-09-09T13:49:19;4.65;;;0.75;;
41446;SDS011;27185;52.040;4.490;2022-09-09T13:52:10;4.13;;;0.50;;
41446;SDS011;27185;52.040;4.490;2022-09-09T13:54:58;3.88;;;0.85;;
41446;SDS011;27185;52.040;4.490;2022-09-09T13:57:51;3.17;;;0.63;;
41446;SDS011;27185;52.040;4.490;2022-09-09T14:00:37;1.50;;;0.40;;
41446;SDS011;27185;52.040;4.490;2022-09-09T14:03:22;3.10;;;0.60;;
41446;SDS011;27185;52.040;4.490;2022-09-09T14:06:08;2.47;;;0.73;;
41446;SDS011;27185;52.040;4.490;2022-09-09T14:08:55;4.55;;;0.65;;
41446;SDS011;27185;52.040;4.490;2022-09-09T14:11:41;4.28;;;0.88;;
41446;SDS011;27185;52.040;4.490;2022-09-09T14:14:27;6.28;;;0.90;;
41446;SDS011;27185;52.040;4.490;2022-09-09T14:17:13;3.13;;;0.88;;
41446;SDS011;27185;52.040;4.490;2022-09-09T14:19:59;7.35;;;1.13;;
41446;SDS011;27185;52.040;4.490;2022-09-09T14:22:45;4.90;;;0.90;;
41446;SDS011;27185;52.040;4.490;2022-09-09T14:25:30;4.05;;;0.85;;
41446;SDS011;27185;52.040;4.490;2022-09-09T14:28:17;6.43;;;0.70;;
41446;SDS011;27185;52.040;4.490;2022-09-09T14:31:03;5.20;;;0.73;;
41446;SDS011;27185;52.040;4.490;2022-09-09T14:33:50;6.45;;;1.02;;
41446;SDS011;27185;52.040;4.490;2022-09-09T14:36:36;5.00;;;0.70;;
41446;SDS011;27185;52.040;4.490;2022-09-09T14:39:25;5.55;;;0.80;;
41446;SDS011;27185;52.040;4.490;2022-09-09T14:42:11;4.22;;;0.82;;
41446;SDS011;27185;52.040;4.490;2022-09-09T14:44:56;2.78;;;0.73;;
41446;SDS011;27185;52.040;4.490;2022-09-09T14:47:42;6.88;;;0.70;;
41446;SDS011;27185;52.040;4.490;2022-09-09T14:50:27;3.58;;;0.63;;
41446;SDS011;27185;52.040;4.490;2022-09-09T14:53:13;5.53;;;0.80;;
41446;SDS011;27185;52.040;4.490;2022-09-09T14:56:05;6.25;;;0.70;;
41446;SDS011;27185;52.040;4.490;2022-09-09T14:58:54;9.10;;;1.27;;
41446;SDS011;27185;52.040;4.490;2022-09-09T15:01:40;4.28;;;1.00;;
41446;SDS011;27185;52.040;4.490;2022-09-09T15:04:26;7.25;;;0.90;;
41446;SDS011;27185;52.040;4.490;2022-09-09T15:07:12;3.53;;;0.73;;
41446;SDS011;27185;52.040;4.490;2022-09-09T15:09:58;5.75;;;0.80;;
41446;SDS011;27185;52.040;4.490;2022-09-09T15:12:43;5.03;;;0.77;;
41446;SDS011;27185;52.040;4.490;2022-09-09T15:15:29;5.15;;;0.90;;
41446;SDS011;27185;52.040;4.490;2022-09-09T15:18:15;3.10;;;0.63;;
41446;SDS011;27185;52.040;4.490;2022-09-09T15:21:00;5.95;;;1.00;;
41446;SDS011;27185;52.040;4.490;2022-09-09T15:23:48;5.65;;;0.63;;
41446;SDS011;27185;52.040;4.490;2022-09-09T15:26:34;5.43;;;0.80;;
41446;SDS011;27185;52.040;4.490;2022-09-09T15:29:23;8.68;;;0.98;;
41446;SDS011;27185;52.040;4.490;2022-09-09T15:32:09;5.00;;;0.90;;
41446;SDS011;27185;52.040;4.490;2022-09-09T15:34:55;5.40;;;0.90;;
41446;SDS011;27185;52.040;4.490;2022-09-09T15:37:40;5.63;;;0.95;;
41446;SDS011;27185;52.040;4.490;2022-09-09T15:40:26;3.78;;;0.75;;
41446;SDS011;27185;52.040;4.490;2022-09-09T15:43:11;5.38;;;0.88;;
41446;SDS011;27185;52.040;4.490;2022-09-09T15:45:59;8.35;;;1.00;;
41446;SDS011;27185;52.040;4.490;2022-09-09T15:49:21;6.47;;;1.30;;
41446;SDS011;27185;52.040;4.490;2022-09-09T15:52:10;4.75;;;1.45;;
41446;SDS011;27185;52.040;4.490;2022-09-09T15:54:56;3.20;;;0.85;;
41446;SDS011;27185;52.040;4.490;2022-09-09T15:57:41;4.45;;;0.88;;
41446;SDS011;27185;52.040;4.490;2022-09-09T16:00:27;3.20;;;0.80;;
41446;SDS011;27185;52.040;4.490;2022-09-09T16:03:13;4.75;;;1.50;;
41446;SDS011;27185;52.040;4.490;2022-09-09T16:05:58;4.88;;;1.33;;
41446;SDS011;27185;52.040;4.490;2022-09-09T16:08:45;9.25;;;1.92;;
41446;SDS011;27185;52.040;4.490;2022-09-09T16:11:32;5.97;;;1.67;;
41446;SDS011;27185;52.040;4.490;2022-09-09T16:14:20;7.55;;;2.15;;
41446;SDS011;27185;52.040;4.490;2022-09-09T16:17:06;10.20;;;2.50;;
41446;SDS011;27185;52.040;4.490;2022-09-09T16:19:52;7.35;;;3.17;;
41446;SDS011;27185;52.040;4.490;2022-09-09T16:22:39;6.80;;;3.35;;
41446;SDS011;27185;52.040;4.490;2022-09-09T16:25:25;7.50;;;4.18;;
41446;SDS011;27185;52.040;4.490;2022-09-09T16:28:10;11.85;;;4.47;;
41446;SDS011;27185;52.040;4.490;2022-09-09T16:30:56;9.50;;;4.97;;
41446;SDS011;27185;52.040;4.490;2022-09-09T16:33:43;9.57;;;4.93;;
41446;SDS011;27185;52.040;4.490;2022-09-09T16:36:30;10.40;;;4.78;;
41446;SDS011;27185;52.040;4.490;2022-09-09T16:39:17;10.13;;;4.85;;
41446;SDS011;27185;52.040;4.490;2022-09-09T16:42:04;9.60;;;4.90;;
41446;SDS011;27185;52.040;4.490;2022-09-09T16:44:50;9.90;;;4.90;;
41446;SDS011;27185;52.040;4.490;2022-09-09T16:47:35;12.40;;;5.03;;
41446;SDS011;27185;52.040;4.490;2022-09-09T16:50:21;11.82;;;4.55;;
41446;SDS011;27185;52.040;4.490;2022-09-09T16:53:07;8.95;;;4.55;;
41446;SDS011;27185;52.040;4.490;2022-09-09T16:55:53;8.90;;;4.70;;
41446;SDS011;27185;52.040;4.490;2022-09-09T16:58:39;9.77;;;4.18;;
41446;SDS011;27185;52.040;4.490;2022-09-09T17:01:32;5.32;;;3.25;;
41446;SDS011;27185;52.040;4.490;2022-09-09T17:04:23;5.85;;;3.10;;
41446;SDS011;27185;52.040;4.490;2022-09-09T17:07:12;6.07;;;2.80;;
41446;SDS011;27185;52.040;4.490;2022-09-09T17:09:58;8.88;;;2.60;;
41446;SDS011;27185;52.040;4.490;2022-09-09T17:12:43;6.32;;;2.50;;
41446;SDS011;27185;52.040;4.490;2022-09-09T17:15:29;6.07;;;2.42;;
41446;SDS011;27185;52.040;4.490;2022-09-09T17:18:15;4.88;;;2.10;;
41446;SDS011;27185;52.040;4.490;2022-09-09T17:21:06;6.57;;;2.33;;
41446;SDS011;27185;52.040;4.490;2022-09-09T17:23:56;6.05;;;2.65;;
41446;SDS011;27185;52.040;4.490;2022-09-09T17:26:42;7.07;;;2.50;;
41446;SDS011;27185;52.040;4.490;2022-09-09T17:29:28;5.18;;;2.58;;
41446;SDS011;27185;52.040;4.490;2022-09-09T17:32:13;8.80;;;3.53;;
41446;SDS011;27185;52.040;4.490;2022-09-09T17:34:59;8.15;;;3.45;;
41446;SDS011;27185;52.040;4.490;2022-09-09T17:37:44;6.88;;;3.28;;
41446;SDS011;27185;52.040;4.490;2022-09-09T17:40:30;7.63;;;2.95;;
41446;SDS011;27185;52.040;4.490;2022-09-09T17:43:15;11.77;;;3.15;;
41446;SDS011;27185;52.040;4.490;2022-09-09T17:46:05;7.82;;;3.05;;
41446;SDS011;27185;52.040;4.490;2022-09-09T17:48:58;10.13;;;3.20;;
41446;SDS011;27185;52.040;4.490;2022-09-09T17:51:45;7.90;;;3.38;;
41446;SDS011;27185;52.040;4.490;2022-09-09T17:54:31;6.95;;;2.13;;
41446;SDS011;27185;52.040;4.490;2022-09-09T17:57:18;5.50;;;2.07;;
41446;SDS011;27185;52.040;4.490;2022-09-09T18:00:04;8.23;;;2.30;;
41446;SDS011;27185;52.040;4.490;2022-09-09T18:02:51;3.17;;;1.80;;
41446;SDS011;27185;52.040;4.490;2022-09-09T18:05:36;9.52;;;2.95;;
41446;SDS011;27185;52.040;4.490;2022-09-09T18:08:22;6.82;;;2.60;;
41446;SDS011;27185;52.040;4.490;2022-09-09T18:11:08;4.85;;;1.92;;
41446;SDS011;27185;52.040;4.490;2022-09-09T18:13:55;6.32;;;2.28;;
41446;SDS011;27185;52.040;4.490;2022-09-09T18:16:41;8.25;;;2.30;;
41446;SDS011;27185;52.040;4.490;2022-09-09T18:19:28;5.78;;;1.70;;
41446;SDS011;27185;52.040;4.490;2022-09-09T18:25:00;6.60;;;1.75;;
41446;SDS011;27185;52.040;4.490;2022-09-09T18:27:46;7.05;;;1.38;;
41446;SDS011;27185;52.040;4.490;2022-09-09T18:30:31;6.20;;;1.40;;
41446;SDS011;27185;52.040;4.490;2022-09-09T18:33:17;6.60;;;1.67;;
41446;SDS011;27185;52.040;4.490;2022-09-09T18:36:10;4.57;;;1.20;;
41446;SDS011;27185;52.040;4.490;2022-09-09T18:38:59;5.05;;;1.40;;
41446;SDS011;27185;52.040;4.490;2022-09-09T18:41:48;6.72;;;1.45;;
41446;SDS011;27185;52.040;4.490;2022-09-09T18:44:36;4.82;;;1.60;;
41446;SDS011;27185;52.040;4.490;2022-09-09T18:47:22;5.70;;;1.33;;
41446;SDS011;27185;52.040;4.490;2022-09-09T18:50:08;6.95;;;1.40;;
41446;SDS011;27185;52.040;4.490;2022-09-09T18:52:55;9.55;;;2.05;;
41446;SDS011;27185;52.040;4.490;2022-09-09T18:55:40;7.00;;;1.80;;
41446;SDS011;27185;52.040;4.490;2022-09-09T18:58:28;6.72;;;2.00;;